createdAt,value
2022-09-28T00:03:27.311Z,37.23
2022-09-28T00:10:57.918Z,37.26
2022-09-28T00:18:50.009Z,37.24
2022-09-28T00:26:29.451Z,37.21
2022-09-28T00:34:11.008Z,37.19
2022-09-28T00:41:54.419Z,37.22
2022-09-28T00:49:56.747Z,37.28
2022-09-28T00:58:05.671Z,36.99
2022-09-28T01:05:58.141Z,37.21
2022-09-28T01:13:43.556Z,37.27
2022-09-28T01:22:04.205Z,37.27
2022-09-28T01:30:10.104Z,37.26
2022-09-28T01:38:36.832Z,37.32
2022-09-28T01:46:41.860Z,37.39
2022-09-28T01:54:55.438Z,37.29
2022-09-28T02:03:17.807Z,37.28
2022-09-28T02:11:39.491Z,37.33
2022-09-28T02:19:53.383Z,37.33
2022-09-28T02:28:11.654Z,37.4
2022-09-28T02:35:56.918Z,37.42
2022-09-28T02:43:45.103Z,37.33
2022-09-28T02:52:00.798Z,37.11
2022-09-28T03:00:18.165Z,37.05
2022-09-28T03:08:22.050Z,37.09
2022-09-28T03:16:29.543Z,37.12
2022-09-28T03:24:15.367Z,37.04
2022-09-28T03:32:04.196Z,37.05
2022-09-28T03:39:51.056Z,36.91
2022-09-28T03:47:31.134Z,37.2
2022-09-28T03:55:31.550Z,37.28
2022-09-28T04:03:17.149Z,36.99
2022-09-28T04:10:59.519Z,36.87
2022-09-28T04:18:36.128Z,36.98
2022-09-28T04:26:20.910Z,36.96
2022-09-28T04:34:08.811Z,36.82
2022-09-28T04:41:43.494Z,36.92
2022-09-28T04:49:20.493Z,36.95
2022-09-28T04:57:03.624Z,36.97
2022-09-28T05:04:53.277Z,36.88
2022-09-28T05:12:36.136Z,37.22
2022-09-28T05:20:27.522Z,37.4
2022-09-28T05:28:08.774Z,37.5
2022-09-28T05:35:45.022Z,37.49
2022-09-28T05:43:29.164Z,37.52
2022-09-28T05:51:06.419Z,37.54
2022-09-28T05:58:43.561Z,37.65
2022-09-28T06:06:25.002Z,37.55
2022-09-28T06:14:02.236Z,37.68
2022-09-28T06:22:00.201Z,37.5
2022-09-28T06:29:57.587Z,37.25
2022-09-28T06:37:41.385Z,37.16
2022-09-28T06:45:31.585Z,37.11
2022-09-28T06:53:14.121Z,36.86
2022-09-28T07:00:47.641Z,36.94
2022-09-28T07:08:55.050Z,37.3
2022-09-28T07:17:07.506Z,37.14
2022-09-28T07:24:38.435Z,37.09
2022-09-28T07:32:14.172Z,37.32
2022-09-28T07:40:03.670Z,37.4
2022-09-28T07:47:43.790Z,37.55
2022-09-28T07:55:25.424Z,37.45
2022-09-28T08:03:17.140Z,37.5
2022-09-28T08:11:02.165Z,37.51
2022-09-28T08:18:47.497Z,37.62
2022-09-28T08:26:25.335Z,37.46
2022-09-28T08:34:17.284Z,37.69
2022-09-28T08:42:06.277Z,37.51
2022-09-28T08:50:29.254Z,37.52
2022-09-28T08:58:34.185Z,37.26
2022-09-28T09:06:39.570Z,37.42
2022-09-28T09:14:50.881Z,37.46
2022-09-28T09:23:20.633Z,37.37
2022-09-28T09:31:41.070Z,37.35
2022-09-28T09:39:38.066Z,37.46
2022-09-28T09:47:59.863Z,37.31
2022-09-28T09:56:31.359Z,37.17
2022-09-28T10:04:41.372Z,37.14
2022-09-28T10:12:57.852Z,37.23
2022-09-28T10:20:49.105Z,37.28
2022-09-28T10:28:54.008Z,37.26
2022-09-28T10:36:54.195Z,37.09
2022-09-28T10:44:58.372Z,37.21
2022-09-28T10:52:57.431Z,37.13
2022-09-28T11:01:05.634Z,37.24
2022-09-28T11:09:12.945Z,37.35
2022-09-28T11:17:25.098Z,37.33
2022-09-28T11:25:26.029Z,37.58
2022-09-28T11:33:06.545Z,37.41
2022-09-28T11:41:12.457Z,37.52
2022-09-28T11:49:25.192Z,37.48
2022-09-28T11:57:21.108Z,37.41
2022-09-28T12:05:21.329Z,37.33
2022-09-28T12:13:28.789Z,37.64
2022-09-28T12:21:34.404Z,37.46
2022-09-28T12:29:34.351Z,37.23
2022-09-28T12:37:18.300Z,37.31
2022-09-28T12:45:00.311Z,37.17
2022-09-28T12:53:06.487Z,37.43
2022-09-28T13:00:44.771Z,37.29
2022-09-28T13:08:29.349Z,37.5
2022-09-28T13:15:50.371Z,37.7
2022-09-28T13:23:27.315Z,37.75
2022-09-28T13:38:20.962Z,37.59
2022-09-28T13:45:49.027Z,37.41
2022-09-28T13:53:40.124Z,37.6
2022-09-28T14:01:35.952Z,37.51
2022-09-28T14:09:31.424Z,37.62
2022-09-28T14:17:03.333Z,37.66
2022-09-28T14:24:57.567Z,37.7
2022-09-28T14:32:50.931Z,37.52
2022-09-28T14:40:26.283Z,37.45
2022-09-28T14:48:07.734Z,37.08
2022-09-28T14:55:58.981Z,37
2022-09-28T15:03:45.105Z,37.17
2022-09-28T15:11:38.363Z,37.21
2022-09-28T15:19:26.543Z,37.34
2022-09-28T15:27:05.438Z,37.39
2022-09-28T15:34:55.363Z,37.41
2022-09-28T15:42:24.970Z,37.51
2022-09-28T15:49:59.340Z,37.52
2022-09-28T15:57:38.694Z,37.63
2022-09-28T16:05:10.829Z,37.48
2022-09-28T16:12:31.789Z,37.36
2022-09-28T16:20:15.411Z,37.46
2022-09-28T16:28:02.192Z,37.4
2022-09-28T16:35:22.343Z,37.48
2022-09-28T16:42:51.383Z,37.48
2022-09-28T16:50:09.152Z,37.45
2022-09-28T16:57:52.136Z,37.46
2022-09-28T17:05:19.394Z,37.53
2022-09-28T17:12:38.573Z,37.6
2022-09-28T17:19:57.716Z,37.56
2022-09-28T17:27:06.827Z,37.64
2022-09-28T17:34:25.084Z,37.8
2022-09-28T17:41:48.207Z,37.71
2022-09-28T17:48:57.870Z,37.7
2022-09-28T17:56:06.932Z,37.67
2022-09-28T18:03:20.625Z,37.72
2022-09-28T18:10:49.785Z,37.74
2022-09-28T18:18:04.848Z,37.89
2022-09-28T18:25:23.466Z,37.8
2022-09-28T18:32:47.515Z,37.88
2022-09-28T18:40:19.537Z,37.87
2022-09-28T18:47:34.103Z,37.86
2022-09-28T18:54:56.971Z,37.93
2022-09-28T19:02:24.029Z,37.92
2022-09-28T19:09:53.152Z,37.88
2022-09-28T19:17:08.987Z,37.84
2022-09-28T19:24:27.938Z,37.8
2022-09-28T19:31:42.951Z,37.8
2022-09-28T19:39:17.116Z,37.83
2022-09-28T19:46:32.073Z,37.71
2022-09-28T19:54:09.407Z,37.72
2022-09-28T20:01:37.702Z,37.75
2022-09-28T20:08:58.094Z,37.75
2022-09-28T20:16:33.186Z,37.82
2022-09-28T20:24:08.497Z,37.79
2022-09-28T20:31:36.046Z,37.78
2022-09-28T20:39:09.206Z,37.86
2022-09-28T20:46:40.013Z,37.84
2022-09-28T20:54:15.848Z,37.87
2022-09-28T21:01:40.823Z,37.8
2022-09-28T21:09:22.071Z,37.88
2022-09-28T21:16:59.523Z,37.85
2022-09-28T21:24:44.579Z,37.9
2022-09-28T21:32:12.200Z,37.88
2022-09-28T21:39:52.394Z,37.89
2022-09-28T21:47:17.917Z,37.88
2022-09-28T21:54:52.005Z,37.93
2022-09-28T22:02:26.714Z,37.96
2022-09-28T22:09:42.817Z,37.93
2022-09-28T22:16:59.536Z,37.96
2022-09-28T22:24:20.544Z,37.88
2022-09-28T22:31:55.541Z,37.91
2022-09-28T22:39:39.228Z,37.86
2022-09-28T22:47:13.225Z,38
2022-09-28T22:54:36.432Z,37.95
2022-09-28T23:02:13.711Z,38.01
2022-09-28T23:09:47.877Z,38.04
2022-09-28T23:17:02.530Z,38.06
2022-09-28T23:24:21.399Z,38.05
2022-09-28T23:31:53.385Z,37.87
2022-09-28T23:39:15.973Z,37.78
2022-09-28T23:46:34.348Z,37.78
2022-09-28T23:54:14.531Z,37.79
